sensor_id;sensor_type;location;lat;lon;timestamp;pressure;altitude;pressure_sealevel;temperature;humidity
76819;BME280;65772;51.096;17.006;2023-05-07T00:01:23;100627.30;;;13.21;60.59
76819;BME280;65772;51.096;17.006;2023-05-07T00:03:53;100628.50;;;13.21;60.82
76819;BME280;65772;51.096;17.006;2023-05-07T00:06:24;100626.98;;;13.22;60.87
76819;BME280;65772;51.096;17.006;2023-05-07T00:08:55;100626.65;;;13.22;60.91
76819;BME280;65772;51.096;17.006;2023-05-07T00:11:26;100629.05;;;13.22;60.70
76819;BME280;65772;51.096;17.006;2023-05-07T00:13:57;100630.08;;;13.22;60.62
76819;BME280;65772;51.096;17.006;2023-05-07T00:16:27;100635.21;;;13.22;60.77
76819;BME280;65772;51.096;17.006;2023-05-07T00:18:58;100632.13;;;13.22;60.60
76819;BME280;65772;51.096;17.006;2023-05-07T00:21:29;100631.83;;;13.23;60.72
76819;BME280;65772;51.096;17.006;2023-05-07T00:23:59;100634.92;;;13.24;60.55
76819;BME280;65772;51.096;17.006;2023-05-07T00:26:30;100635.42;;;13.23;60.44
76819;BME280;65772;51.096;17.006;2023-05-07T00:29:00;100635.52;;;13.20;60.37
76819;BME280;65772;51.096;17.006;2023-05-07T00:31:31;100637.88;;;13.18;60.26
76819;BME280;65772;51.096;17.006;2023-05-07T00:34:01;100635.27;;;13.17;60.41
76819;BME280;65772;51.096;17.006;2023-05-07T00:36:32;100638.64;;;13.15;60.26
76819;BME280;65772;51.096;17.006;2023-05-07T00:39:03;100637.59;;;13.14;60.28
76819;BME280;65772;51.096;17.006;2023-05-07T00:41:33;100636.52;;;13.12;60.48
76819;BME280;65772;51.096;17.006;2023-05-07T00:44:04;100640.80;;;13.12;60.40
76819;BME280;65772;51.096;17.006;2023-05-07T00:46:34;100644.05;;;13.12;60.48
76819;BME280;65772;51.096;17.006;2023-05-07T00:49:06;100645.57;;;13.11;60.30
76819;BME280;65772;51.096;17.006;2023-05-07T00:51:37;100646.10;;;13.11;60.33
76819;BME280;65772;51.096;17.006;2023-05-07T00:54:07;100647.32;;;13.12;60.53
76819;BME280;65772;51.096;17.006;2023-05-07T00:56:38;100644.60;;;13.13;60.39
76819;BME280;65772;51.096;17.006;2023-05-07T00:59:09;100643.08;;;13.14;60.20
76819;BME280;65772;51.096;17.006;2023-05-07T01:01:41;100649.12;;;13.16;60.66
76819;BME280;65772;51.096;17.006;2023-05-07T01:04:12;100648.60;;;13.15;60.44
76819;BME280;65772;51.096;17.006;2023-05-07T01:06:43;100649.83;;;13.16;60.56
76819;BME280;65772;51.096;17.006;2023-05-07T01:09:15;100651.07;;;13.18;60.53
76819;BME280;65772;51.096;17.006;2023-05-07T01:11:46;100655.41;;;13.20;60.46
76819;BME280;65772;51.096;17.006;2023-05-07T01:14:17;100654.89;;;13.20;60.21
76819;BME280;65772;51.096;17.006;2023-05-07T01:16:50;100653.32;;;13.19;60.48
76819;BME280;65772;51.096;17.006;2023-05-07T01:19:21;100656.04;;;13.18;60.36
76819;BME280;65772;51.096;17.006;2023-05-07T01:21:52;100654.46;;;13.17;60.42
76819;BME280;65772;51.096;17.006;2023-05-07T01:24:30;100651.16;;;13.15;60.32
76819;BME280;65772;51.096;17.006;2023-05-07T01:27:02;100648.73;;;13.14;60.44
76819;BME280;65772;51.096;17.006;2023-05-07T01:29:33;100649.27;;;13.15;60.64
76819;BME280;65772;51.096;17.006;2023-05-07T01:32:04;100651.12;;;13.14;60.69
76819;BME280;65772;51.096;17.006;2023-05-07T01:34:34;100651.41;;;13.11;60.68
76819;BME280;65772;51.096;17.006;2023-05-07T01:37:07;100656.16;;;13.10;60.83
76819;BME280;65772;51.096;17.006;2023-05-07T01:39:40;100649.81;;;13.10;60.83
76819;BME280;65772;51.096;17.006;2023-05-07T01:42:11;100652.66;;;13.14;60.82
76819;BME280;65772;51.096;17.006;2023-05-07T01:44:42;100652.21;;;13.16;60.92
76819;BME280;65772;51.096;17.006;2023-05-07T01:47:13;100657.02;;;13.16;60.93
76819;BME280;65772;51.096;17.006;2023-05-07T01:49:45;100656.35;;;13.17;60.69
76819;BME280;65772;51.096;17.006;2023-05-07T01:52:15;100653.13;;;13.18;61.04
76819;BME280;65772;51.096;17.006;2023-05-07T01:54:46;100655.56;;;13.19;60.98
76819;BME280;65772;51.096;17.006;2023-05-07T01:57:16;100660.36;;;13.19;60.96
76819;BME280;65772;51.096;17.006;2023-05-07T01:59:47;100658.98;;;13.19;60.61
76819;BME280;65772;51.096;17.006;2023-05-07T02:02:17;100661.20;;;13.19;60.49
76819;BME280;65772;51.096;17.006;2023-05-07T02:04:48;100659.83;;;13.18;60.53
76819;BME280;65772;51.096;17.006;2023-05-07T02:07:20;100659.61;;;13.17;60.43
76819;BME280;65772;51.096;17.006;2023-05-07T02:09:50;100662.64;;;13.15;60.41
76819;BME280;65772;51.096;17.006;2023-05-07T02:12:21;100664.17;;;13.14;60.39
76819;BME280;65772;51.096;17.006;2023-05-07T02:14:52;100670.20;;;13.15;60.42
76819;BME280;65772;51.096;17.006;2023-05-07T02:17:22;100666.27;;;13.16;60.32
76819;BME280;65772;51.096;17.006;2023-05-07T02:19:53;100667.65;;;13.16;60.40
76819;BME280;65772;51.096;17.006;2023-05-07T02:22:24;100669.20;;;13.17;60.23
76819;BME280;65772;51.096;17.006;2023-05-07T02:24:54;100668.17;;;13.16;59.95
76819;BME280;65772;51.096;17.006;2023-05-07T02:27:25;100670.88;;;13.16;60.00
76819;BME280;65772;51.096;17.006;2023-05-07T02:29:55;100669.79;;;13.13;59.82
76819;BME280;65772;51.096;17.006;2023-05-07T02:32:26;100669.39;;;13.11;59.96
76819;BME280;65772;51.096;17.006;2023-05-07T02:34:56;100670.58;;;13.11;59.78
76819;BME280;65772;51.096;17.006;2023-05-07T02:37:27;100670.36;;;13.09;59.65
76819;BME280;65772;51.096;17.006;2023-05-07T02:39:57;100673.72;;;13.06;59.69
76819;BME280;65772;51.096;17.006;2023-05-07T02:42:28;100675.40;;;13.05;59.86
76819;BME280;65772;51.096;17.006;2023-05-07T02:44:59;100681.35;;;13.03;59.73
76819;BME280;65772;51.096;17.006;2023-05-07T02:47:30;100679.09;;;13.01;59.70
76819;BME280;65772;51.096;17.006;2023-05-07T02:50:04;100681.94;;;12.99;59.81
76819;BME280;65772;51.096;17.006;2023-05-07T02:52:35;100683.97;;;12.98;59.57
76819;BME280;65772;51.096;17.006;2023-05-07T02:55:07;100683.27;;;12.98;59.48
76819;BME280;65772;51.096;17.006;2023-05-07T02:57:38;100683.91;;;12.96;59.54
76819;BME280;65772;51.096;17.006;2023-05-07T03:00:17;100685.75;;;12.94;59.65
76819;BME280;65772;51.096;17.006;2023-05-07T03:02:54;100687.41;;;12.92;59.65
76819;BME280;65772;51.096;17.006;2023-05-07T03:05:26;100686.50;;;12.90;59.67
76819;BME280;65772;51.096;17.006;2023-05-07T03:07:56;100683.05;;;12.89;59.56
76819;BME280;65772;51.096;17.006;2023-05-07T03:10:27;100687.98;;;12.87;59.67
76819;BME280;65772;51.096;17.006;2023-05-07T03:12:57;100691.71;;;12.86;59.68
76819;BME280;65772;51.096;17.006;2023-05-07T03:15:28;100694.27;;;12.85;59.73
76819;BME280;65772;51.096;17.006;2023-05-07T03:17:59;100693.38;;;12.84;59.58
76819;BME280;65772;51.096;17.006;2023-05-07T03:20:30;100697.46;;;12.83;59.55
76819;BME280;65772;51.096;17.006;2023-05-07T03:23:01;100701.06;;;12.83;59.69
76819;BME280;65772;51.096;17.006;2023-05-07T03:25:32;100702.44;;;12.83;59.77
76819;BME280;65772;51.096;17.006;2023-05-07T03:28:04;100703.27;;;12.82;59.76
76819;BME280;65772;51.096;17.006;2023-05-07T03:30:40;100707.20;;;12.82;59.64
76819;BME280;65772;51.096;17.006;2023-05-07T03:33:10;100709.60;;;12.82;59.58
76819;BME280;65772;51.096;17.006;2023-05-07T03:35:41;100714.92;;;12.82;59.60
76819;BME280;65772;51.096;17.006;2023-05-07T03:38:12;100710.81;;;12.83;59.67
76819;BME280;65772;51.096;17.006;2023-05-07T03:40:42;100710.01;;;12.84;59.42
76819;BME280;65772;51.096;17.006;2023-05-07T03:43:13;100711.73;;;12.85;59.53
76819;BME280;65772;51.096;17.006;2023-05-07T03:45:47;100713.81;;;12.86;59.52
76819;BME280;65772;51.096;17.006;2023-05-07T03:48:22;100719.12;;;12.86;59.45
76819;BME280;65772;51.096;17.006;2023-05-07T03:50:53;100724.34;;;12.82;59.36
76819;BME280;65772;51.096;17.006;2023-05-07T03:53:23;100729.81;;;12.82;59.43
76819;BME280;65772;51.096;17.006;2023-05-07T03:55:54;100731.35;;;12.81;59.43
76819;BME280;65772;51.096;17.006;2023-05-07T03:58:24;100737.69;;;12.81;59.55
76819;BME280;65772;51.096;17.006;2023-05-07T04:00:56;100743.02;;;12.82;59.56
76819;BME280;65772;51.096;17.006;2023-05-07T04:03:28;100745.61;;;12.83;59.55
76819;BME280;65772;51.096;17.006;2023-05-07T04:06:00;100749.05;;;12.84;59.49
76819;BME280;65772;51.096;17.006;2023-05-07T04:08:31;100753.20;;;12.85;59.31
76819;BME280;65772;51.096;17.006;2023-05-07T04:11:02;100750.48;;;12.86;59.10
76819;BME280;65772;51.096;17.006;2023-05-07T04:13:34;100753.71;;;12.85;59.04
76819;BME280;65772;51.096;17.006;2023-05-07T04:16:05;100754.73;;;12.84;59.05
76819;BME280;65772;51.096;17.006;2023-05-07T04:18:38;100758.34;;;12.85;59.02
76819;BME280;65772;51.096;17.006;2023-05-07T04:21:15;100763.46;;;12.84;58.90
76819;BME280;65772;51.096;17.006;2023-05-07T04:23:47;100762.55;;;12.82;59.00
76819;BME280;65772;51.096;17.006;2023-05-07T04:26:18;100770.23;;;12.81;58.93
76819;BME280;65772;51.096;17.006;2023-05-07T04:28:48;100771.70;;;12.78;58.94
76819;BME280;65772;51.096;17.006;2023-05-07T04:31:20;100776.80;;;12.77;58.98
76819;BME280;65772;51.096;17.006;2023-05-07T04:33:53;100781.27;;;12.77;58.95
76819;BME280;65772;51.096;17.006;2023-05-07T04:36:24;100786.72;;;12.76;58.92
76819;BME280;65772;51.096;17.006;2023-05-07T04:39:03;100786.54;;;12.76;58.85
76819;BME280;65772;51.096;17.006;2023-05-07T04:41:34;100789.29;;;12.77;58.92
76819;BME280;65772;51.096;17.006;2023-05-07T04:44:06;100791.53;;;12.77;59.04
76819;BME280;65772;51.096;17.006;2023-05-07T04:46:38;100790.73;;;12.78;59.06
76819;BME280;65772;51.096;17.006;2023-05-07T04:49:09;100793.86;;;12.80;59.18
76819;BME280;65772;51.096;17.006;2023-05-07T04:51:40;100795.73;;;12.79;59.24
76819;BME280;65772;51.096;17.006;2023-05-07T04:54:13;100798.60;;;12.78;59.21
76819;BME280;65772;51.096;17.006;2023-05-07T04:56:44;100797.88;;;12.77;59.11
76819;BME280;65772;51.096;17.006;2023-05-07T04:59:14;100801.17;;;12.78;59.34
76819;BME280;65772;51.096;17.006;2023-05-07T05:01:45;100801.56;;;12.80;59.28
76819;BME280;65772;51.096;17.006;2023-05-07T05:04:15;100806.27;;;12.83;59.24
76819;BME280;65772;51.096;17.006;2023-05-07T05:06:46;100812.29;;;12.84;59.33
76819;BME280;65772;51.096;17.006;2023-05-07T05:09:17;100813.92;;;12.87;59.24
76819;BME280;65772;51.096;17.006;2023-05-07T05:11:48;100819.27;;;12.88;59.39
76819;BME280;65772;51.096;17.006;2023-05-07T05:14:18;100818.14;;;12.91;59.04
76819;BME280;65772;51.096;17.006;2023-05-07T05:16:49;100822.63;;;12.92;58.97
76819;BME280;65772;51.096;17.006;2023-05-07T05:19:20;100825.02;;;12.92;58.76
76819;BME280;65772;51.096;17.006;2023-05-07T05:21:51;100832.25;;;12.93;58.91
76819;BME280;65772;51.096;17.006;2023-05-07T05:24:21;100837.11;;;12.96;58.88
76819;BME280;65772;51.096;17.006;2023-05-07T05:26:54;100836.10;;;12.97;58.60
76819;BME280;65772;51.096;17.006;2023-05-07T05:29:25;100838.90;;;12.98;58.41
76819;BME280;65772;51.096;17.006;2023-05-07T05:31:55;100841.54;;;13.00;58.45
76819;BME280;65772;51.096;17.006;2023-05-07T05:34:26;100847.09;;;13.02;58.34
76819;BME280;65772;51.096;17.006;2023-05-07T05:36:57;100845.02;;;13.03;58.31
76819;BME280;65772;51.096;17.006;2023-05-07T05:39:28;100842.97;;;13.03;58.40
76819;BME280;65772;51.096;17.006;2023-05-07T05:42:00;100844.18;;;13.04;58.45
76819;BME280;65772;51.096;17.006;2023-05-07T05:44:30;100843.17;;;13.04;58.38
76819;BME280;65772;51.096;17.006;2023-05-07T05:47:01;100844.84;;;13.02;58.18
76819;BME280;65772;51.096;17.006;2023-05-07T05:49:32;100843.27;;;13.01;57.99
76819;BME280;65772;51.096;17.006;2023-05-07T05:52:04;100843.21;;;12.99;58.52
76819;BME280;65772;51.096;17.006;2023-05-07T05:54:36;100845.77;;;12.99;58.47
76819;BME280;65772;51.096;17.006;2023-05-07T05:57:07;100845.97;;;13.00;58.39
76819;BME280;65772;51.096;17.006;2023-05-07T05:59:37;100850.13;;;13.01;58.08
76819;BME280;65772;51.096;17.006;2023-05-07T06:02:08;100848.06;;;13.01;57.99
76819;BME280;65772;51.096;17.006;2023-05-07T06:04:39;100851.82;;;13.00;58.13
76819;BME280;65772;51.096;17.006;2023-05-07T06:07:12;100855.25;;;13.01;58.19
76819;BME280;65772;51.096;17.006;2023-05-07T06:09:43;100858.14;;;13.00;58.18
76819;BME280;65772;51.096;17.006;2023-05-07T06:12:14;100857.80;;;13.00;57.94
76819;BME280;65772;51.096;17.006;2023-05-07T06:14:45;100853.40;;;13.01;57.98
76819;BME280;65772;51.096;17.006;2023-05-07T06:17:17;100858.60;;;13.05;57.77
76819;BME280;65772;51.096;17.006;2023-05-07T06:19:51;100860.88;;;13.06;57.99
76819;BME280;65772;51.096;17.006;2023-05-07T06:22:22;100860.07;;;13.08;57.90
76819;BME280;65772;51.096;17.006;2023-05-07T06:24:53;100862.50;;;13.09;57.46
76819;BME280;65772;51.096;17.006;2023-05-07T06:27:24;100863.73;;;13.10;57.23
76819;BME280;65772;51.096;17.006;2023-05-07T06:29:55;100866.65;;;13.10;57.32
76819;BME280;65772;51.096;17.006;2023-05-07T06:32:25;100874.38;;;13.10;57.51
76819;BME280;65772;51.096;17.006;2023-05-07T06:34:56;100878.02;;;13.11;57.52
76819;BME280;65772;51.096;17.006;2023-05-07T06:37:26;100885.41;;;13.12;57.26
76819;BME280;65772;51.096;17.006;2023-05-07T06:40:05;100887.94;;;13.11;57.10
76819;BME280;65772;51.096;17.006;2023-05-07T06:42:38;100896.52;;;13.11;57.11
76819;BME280;65772;51.096;17.006;2023-05-07T06:45:29;100897.17;;;13.10;56.93
76819;BME280;65772;51.096;17.006;2023-05-07T06:47:59;100897.65;;;13.09;57.01
76819;BME280;65772;51.096;17.006;2023-05-07T06:50:32;100897.63;;;13.08;56.62
76819;BME280;65772;51.096;17.006;2023-05-07T06:53:03;100898.83;;;13.08;56.52
76819;BME280;65772;51.096;17.006;2023-05-07T06:55:34;100903.98;;;13.09;56.52
76819;BME280;65772;51.096;17.006;2023-05-07T06:58:07;100904.52;;;13.09;56.56
76819;BME280;65772;51.096;17.006;2023-05-07T07:00:38;100911.52;;;13.08;56.59
76819;BME280;65772;51.096;17.006;2023-05-07T07:03:10;100915.23;;;13.07;56.49
76819;BME280;65772;51.096;17.006;2023-05-07T07:05:41;100916.54;;;13.05;56.14
76819;BME280;65772;51.096;17.006;2023-05-07T07:08:12;100916.17;;;13.04;56.18
76819;BME280;65772;51.096;17.006;2023-05-07T07:10:43;100912.93;;;13.04;56.26
76819;BME280;65772;51.096;17.006;2023-05-07T07:13:14;100916.55;;;13.05;56.16
76819;BME280;65772;51.096;17.006;2023-05-07T07:15:45;100918.10;;;13.05;56.08
76819;BME280;65772;51.096;17.006;2023-05-07T07:18:15;100920.48;;;13.05;56.06
76819;BME280;65772;51.096;17.006;2023-05-07T07:20:47;100924.61;;;13.05;56.22
76819;BME280;65772;51.096;17.006;2023-05-07T07:23:18;100928.23;;;13.06;56.10
76819;BME280;65772;51.096;17.006;2023-05-07T07:25:48;100930.66;;;13.07;56.02
76819;BME280;65772;51.096;17.006;2023-05-07T07:28:21;100934.46;;;13.08;55.74
76819;BME280;65772;51.096;17.006;2023-05-07T07:30:52;100934.71;;;13.10;55.79
76819;BME280;65772;51.096;17.006;2023-05-07T07:33:23;100933.39;;;13.12;55.69
76819;BME280;65772;51.096;17.006;2023-05-07T07:35:53;100938.29;;;13.15;55.62
76819;BME280;65772;51.096;17.006;2023-05-07T07:38:24;100937.88;;;13.18;55.46
76819;BME280;65772;51.096;17.006;2023-05-07T07:40:54;100940.01;;;13.21;55.30
76819;BME280;65772;51.096;17.006;2023-05-07T07:43:25;100941.64;;;13.24;55.39
76819;BME280;65772;51.096;17.006;2023-05-07T07:45:56;100942.40;;;13.27;55.39
76819;BME280;65772;51.096;17.006;2023-05-07T07:48:27;100948.33;;;13.30;55.11
76819;BME280;65772;51.096;17.006;2023-05-07T07:50:59;100955.44;;;13.33;55.19
76819;BME280;65772;51.096;17.006;2023-05-07T07:53:30;100958.73;;;13.34;54.78
76819;BME280;65772;51.096;17.006;2023-05-07T07:56:01;100963.92;;;13.37;54.86
76819;BME280;65772;51.096;17.006;2023-05-07T07:58:35;100963.44;;;13.37;54.67
76819;BME280;65772;51.096;17.006;2023-05-07T08:01:07;100963.23;;;13.36;54.60
76819;BME280;65772;51.096;17.006;2023-05-07T08:03:37;100964.06;;;13.35;54.71
76819;BME280;65772;51.096;17.006;2023-05-07T08:06:08;100967.30;;;13.34;54.73
76819;BME280;65772;51.096;17.006;2023-05-07T08:08:39;100964.30;;;13.31;54.73
76819;BME280;65772;51.096;17.006;2023-05-07T08:11:10;100965.10;;;13.29;54.93
76819;BME280;65772;51.096;17.006;2023-05-07T08:13:41;100968.27;;;13.26;55.01
76819;BME280;65772;51.096;17.006;2023-05-07T08:16:12;100972.52;;;13.25;55.05
76819;BME280;65772;51.096;17.006;2023-05-07T08:18:44;100971.94;;;13.22;55.07
76819;BME280;65772;51.096;17.006;2023-05-07T08:21:15;100975.14;;;13.20;54.74
76819;BME280;65772;51.096;17.006;2023-05-07T08:23:46;100976.98;;;13.19;54.72
76819;BME280;65772;51.096;17.006;2023-05-07T08:26:16;100979.83;;;13.17;54.81
76819;BME280;65772;51.096;17.006;2023-05-07T08:28:47;100987.30;;;13.15;54.76
76819;BME280;65772;51.096;17.006;2023-05-07T08:31:17;100989.32;;;13.13;54.84
76819;BME280;65772;51.096;17.006;2023-05-07T08:33:49;100993.91;;;13.12;55.12
76819;BME280;65772;51.096;17.006;2023-05-07T08:36:19;100997.48;;;13.11;55.21
76819;BME280;65772;51.096;17.006;2023-05-07T08:38:50;100996.09;;;13.10;55.04
76819;BME280;65772;51.096;17.006;2023-05-07T08:41:20;100995.12;;;13.12;55.11
76819;BME280;65772;51.096;17.006;2023-05-07T08:43:52;100999.20;;;13.17;55.28
76819;BME280;65772;51.096;17.006;2023-05-07T08:46:26;101004.09;;;13.19;55.15
76819;BME280;65772;51.096;17.006;2023-05-07T08:49:01;101008.80;;;13.22;55.05
76819;BME280;65772;51.096;17.006;2023-05-07T08:51:32;101012.10;;;13.24;54.93
76819;BME280;65772;51.096;17.006;2023-05-07T08:54:04;101013.52;;;13.26;54.97
76819;BME280;65772;51.096;17.006;2023-05-07T08:56:36;101016.41;;;13.25;54.81
76819;BME280;65772;51.096;17.006;2023-05-07T08:59:06;101019.64;;;13.23;54.86
76819;BME280;65772;51.096;17.006;2023-05-07T09:01:37;101022.41;;;13.25;55.05
76819;BME280;65772;51.096;17.006;2023-05-07T09:04:08;101028.21;;;13.23;54.79
76819;BME280;65772;51.096;17.006;2023-05-07T09:06:39;101030.36;;;13.21;54.72
76819;BME280;65772;51.096;17.006;2023-05-07T09:09:15;101029.27;;;13.18;54.76
76819;BME280;65772;51.096;17.006;2023-05-07T09:11:47;101033.69;;;13.17;54.58
76819;BME280;65772;51.096;17.006;2023-05-07T09:14:22;101030.54;;;13.16;54.98
76819;BME280;65772;51.096;17.006;2023-05-07T09:16:54;101029.95;;;13.14;54.71
76819;BME280;65772;51.096;17.006;2023-05-07T09:19:26;101031.27;;;13.12;54.71
76819;BME280;65772;51.096;17.006;2023-05-07T09:22:01;101031.92;;;13.11;54.70
76819;BME280;65772;51.096;17.006;2023-05-07T09:24:39;101029.34;;;13.10;54.83
76819;BME280;65772;51.096;17.006;2023-05-07T09:27:10;101032.44;;;13.11;54.83
76819;BME280;65772;51.096;17.006;2023-05-07T09:29:44;101032.11;;;13.11;54.98
76819;BME280;65772;51.096;17.006;2023-05-07T09:32:15;101032.27;;;13.11;54.80
76819;BME280;65772;51.096;17.006;2023-05-07T09:34:46;101032.39;;;13.09;54.79
76819;BME280;65772;51.096;17.006;2023-05-07T09:37:19;101032.42;;;13.10;54.94
76819;BME280;65772;51.096;17.006;2023-05-07T09:39:50;101030.90;;;13.11;54.81
76819;BME280;65772;51.096;17.006;2023-05-07T09:42:26;101032.80;;;13.11;54.40
76819;BME280;65772;51.096;17.006;2023-05-07T09:45:00;101028.36;;;13.12;54.34
76819;BME280;65772;51.096;17.006;2023-05-07T09:47:37;101027.23;;;13.14;54.53
76819;BME280;65772;51.096;17.006;2023-05-07T09:50:11;101032.56;;;13.15;54.81
76819;BME280;65772;51.096;17.006;2023-05-07T09:52:43;101035.39;;;13.17;54.85
76819;BME280;65772;51.096;17.006;2023-05-07T09:55:15;101039.81;;;13.21;54.84
76819;BME280;65772;51.096;17.006;2023-05-07T09:57:48;101042.48;;;13.26;54.80
76819;BME280;65772;51.096;17.006;2023-05-07T10:00:19;101045.33;;;13.29;55.21
76819;BME280;65772;51.096;17.006;2023-05-07T10:02:52;101046.00;;;13.34;55.55
76819;BME280;65772;51.096;17.006;2023-05-07T10:05:30;101046.56;;;13.41;55.70
76819;BME280;65772;51.096;17.006;2023-05-07T10:08:02;101044.20;;;13.48;55.48
76819;BME280;65772;51.096;17.006;2023-05-07T10:10:35;101047.49;;;13.56;55.26
76819;BME280;65772;51.096;17.006;2023-05-07T10:13:07;101051.64;;;13.63;54.83
76819;BME280;65772;51.096;17.006;2023-05-07T10:15:42;101050.07;;;13.68;54.65
76819;BME280;65772;51.096;17.006;2023-05-07T10:18:13;101050.52;;;13.72;54.42
76819;BME280;65772;51.096;17.006;2023-05-07T10:20:46;101050.31;;;13.77;54.25
76819;BME280;65772;51.096;17.006;2023-05-07T10:23:22;101050.06;;;13.80;54.14
76819;BME280;65772;51.096;17.006;2023-05-07T10:25:56;101055.33;;;13.84;54.00
76819;BME280;65772;51.096;17.006;2023-05-07T10:28:33;101051.16;;;13.89;53.62
76819;BME280;65772;51.096;17.006;2023-05-07T10:31:18;101046.80;;;13.93;53.19
76819;BME280;65772;51.096;17.006;2023-05-07T10:33:56;101052.59;;;13.97;53.60
76819;BME280;65772;51.096;17.006;2023-05-07T10:36:28;101053.96;;;13.97;53.36
76819;BME280;65772;51.096;17.006;2023-05-07T10:39:00;101052.67;;;13.94;52.82
76819;BME280;65772;51.096;17.006;2023-05-07T10:41:31;101053.64;;;13.92;52.95
76819;BME280;65772;51.096;17.006;2023-05-07T10:44:02;101052.20;;;13.89;53.03
76819;BME280;65772;51.096;17.006;2023-05-07T10:46:34;101052.30;;;13.86;52.85
76819;BME280;65772;51.096;17.006;2023-05-07T10:49:13;101051.38;;;13.84;52.84
76819;BME280;65772;51.096;17.006;2023-05-07T10:52:14;101052.66;;;13.81;52.67
76819;BME280;65772;51.096;17.006;2023-05-07T10:55:23;101048.48;;;13.79;52.62
76819;BME280;65772;51.096;17.006;2023-05-07T10:58:25;101049.63;;;13.77;52.64
76819;BME280;65772;51.096;17.006;2023-05-07T11:01:54;101049.97;;;13.77;52.48
76819;BME280;65772;51.096;17.006;2023-05-07T11:04:31;101049.45;;;13.76;52.56
76819;BME280;65772;51.096;17.006;2023-05-07T11:07:30;101047.40;;;13.77;52.48
76819;BME280;65772;51.096;17.006;2023-05-07T11:10:06;101048.83;;;13.79;52.79
76819;BME280;65772;51.096;17.006;2023-05-07T11:12:55;101045.96;;;13.81;52.54
76819;BME280;65772;51.096;17.006;2023-05-07T11:15:40;101048.73;;;13.82;52.30
76819;BME280;65772;51.096;17.006;2023-05-07T11:18:52;101054.10;;;13.83;52.24
76819;BME280;65772;51.096;17.006;2023-05-07T11:21:40;101059.14;;;13.85;52.31
76819;BME280;65772;51.096;17.006;2023-05-07T11:24:23;101059.02;;;13.88;52.30
76819;BME280;65772;51.096;17.006;2023-05-07T11:26:57;101061.02;;;13.91;52.64
76819;BME280;65772;51.096;17.006;2023-05-07T11:29:31;101064.89;;;13.95;52.73
76819;BME280;65772;51.096;17.006;2023-05-07T11:32:07;101066.70;;;13.99;52.55
76819;BME280;65772;51.096;17.006;2023-05-07T11:34:45;101072.05;;;14.00;52.44
76819;BME280;65772;51.096;17.006;2023-05-07T11:37:20;101073.40;;;13.99;52.72
76819;BME280;65772;51.096;17.006;2023-05-07T11:40:05;101079.22;;;13.98;52.55
76819;BME280;65772;51.096;17.006;2023-05-07T11:42:38;101083.66;;;13.97;52.65
76819;BME280;65772;51.096;17.006;2023-05-07T11:45:10;101082.58;;;13.95;52.74
76819;BME280;65772;51.096;17.006;2023-05-07T11:47:42;101084.83;;;13.96;52.74
76819;BME280;65772;51.096;17.006;2023-05-07T11:50:13;101087.46;;;13.98;52.79
76819;BME280;65772;51.096;17.006;2023-05-07T11:52:51;101087.66;;;14.00;52.57
76819;BME280;65772;51.096;17.006;2023-05-07T11:55:23;101086.66;;;14.01;52.08
76819;BME280;65772;51.096;17.006;2023-05-07T11:57:55;101085.36;;;14.03;51.90
76819;BME280;65772;51.096;17.006;2023-05-07T12:00:25;101086.78;;;14.05;51.66
76819;BME280;65772;51.096;17.006;2023-05-07T12:02:56;101090.41;;;14.06;51.59
76819;BME280;65772;51.096;17.006;2023-05-07T12:05:27;101092.52;;;14.07;51.55
76819;BME280;65772;51.096;17.006;2023-05-07T12:07:59;101093.91;;;14.08;51.45
76819;BME280;65772;51.096;17.006;2023-05-07T12:10:29;101093.72;;;14.07;51.54
76819;BME280;65772;51.096;17.006;2023-05-07T12:13:00;101093.34;;;14.06;51.44
76819;BME280;65772;51.096;17.006;2023-05-07T12:15:30;101091.60;;;14.05;51.49
76819;BME280;65772;51.096;17.006;2023-05-07T12:18:01;101091.91;;;14.04;51.49
76819;BME280;65772;51.096;17.006;2023-05-07T12:20:32;101093.98;;;14.04;51.32
76819;BME280;65772;51.096;17.006;2023-05-07T12:23:04;101094.70;;;14.05;51.18
76819;BME280;65772;51.096;17.006;2023-05-07T12:25:35;101095.58;;;14.06;51.18
76819;BME280;65772;51.096;17.006;2023-05-07T12:28:07;101102.48;;;14.07;51.16
76819;BME280;65772;51.096;17.006;2023-05-07T12:30:39;101104.90;;;14.07;51.32
76819;BME280;65772;51.096;17.006;2023-05-07T12:33:10;101104.55;;;14.08;51.19
76819;BME280;65772;51.096;17.006;2023-05-07T12:35:42;101109.36;;;14.08;51.55
76819;BME280;65772;51.096;17.006;2023-05-07T12:38:14;101111.41;;;14.07;51.64
76819;BME280;65772;51.096;17.006;2023-05-07T12:40:47;101113.77;;;14.06;51.47
76819;BME280;65772;51.096;17.006;2023-05-07T12:43:23;101111.17;;;14.05;51.69
76819;BME280;65772;51.096;17.006;2023-05-07T12:45:56;101112.52;;;14.04;51.40
76819;BME280;65772;51.096;17.006;2023-05-07T12:48:27;101111.88;;;14.05;51.44
76819;BME280;65772;51.096;17.006;2023-05-07T12:50:59;101114.64;;;14.06;51.72
76819;BME280;65772;51.096;17.006;2023-05-07T12:53:30;101116.20;;;14.07;51.40
76819;BME280;65772;51.096;17.006;2023-05-07T12:56:01;101114.30;;;14.06;51.38
76819;BME280;65772;51.096;17.006;2023-05-07T12:58:33;101113.23;;;14.05;51.27
76819;BME280;65772;51.096;17.006;2023-05-07T13:01:06;101115.40;;;14.03;51.04
76819;BME280;65772;51.096;17.006;2023-05-07T13:03:39;101120.06;;;14.04;50.79
76819;BME280;65772;51.096;17.006;2023-05-07T13:06:11;101121.73;;;14.03;50.54
76819;BME280;65772;51.096;17.006;2023-05-07T13:08:42;101124.87;;;14.04;50.71